This is the latest recevied weather packets stored in our database for station/object K9RJT. If no packets are shown the sender has not sent any weather packets the latest 10 day(s).
| Time | Temp. | Humidity | Pressure | Rain* | Wind** | Luminosity | Snow |
|---|---|---|---|---|---|---|---|
| 1777481219 | 9.44° C | 58% | 1018.5 hPa | 0 mm | - | 484 W/m² | - |
| 1777480916 | 9.44° C | 59% | 1018.3 hPa | 0 mm | - | 478 W/m² | - |
| 1777480612 | 8.89° C | 60% | 1018.3 hPa | 0 mm | - | 465 W/m² | - |
| 1777480309 | 8.89° C | 60% | 1018.6 hPa | 0 mm | - | 453 W/m² | - |
| 1777480005 | 8.33° C | 63% | 1018.5 hPa | 0 mm | - | 441 W/m² | - |
| 1777479702 | 8.33° C | 62% | 1018.5 hPa | 0 mm | - | 429 W/m² | - |
| 1777479401 | 7.78° C | 64% | 1018.4 hPa | 0 mm | - | 417 W/m² | - |
| 1777479096 | 8.33° C | 63% | 1018.4 hPa | 0 mm | - | 404 W/m² | - |
| 1777478793 | 6.67° C | 66% | 1018.4 hPa | 0 mm | - | 391 W/m² | - |
| 1777478490 | 7.78° C | 64% | 1018.7 hPa | 0 mm | - | 381 W/m² | - |
| 1777478187 | 7.22° C | 64% | 1018.5 hPa | 0 mm | - | 368 W/m² | - |
| 1777477883 | 6.67° C | 68% | 1018.7 hPa | 0 mm | - | 354 W/m² | - |
| 1777477578 | 6.67° C | 68% | 1018.8 hPa | 0 mm | - | 342 W/m² | - |
| 1777477275 | 6.11° C | 68% | 1018.7 hPa | 0 mm | - | 330 W/m² | - |
| 1777476971 | 5.56° C | 70% | 1018.8 hPa | 0 mm | - | 315 W/m² | - |
| 1777476670 | 6.11° C | 70% | 1019.1 hPa | 0 mm | - | 304 W/m² | - |
| 1777476366 | 5.56° C | 70% | 1018.8 hPa | 0 mm | - | 290 W/m² | - |
| 1777476062 | 5° C | 72% | 1018.7 hPa | 0 mm | - | 276 W/m² | - |
| 1777475758 | 5° C | 72% | 1018.7 hPa | 0 mm | - | 263 W/m² | - |
| 1777475455 | 5.56° C | 70% | 1018.9 hPa | 0 mm | - | 250 W/m² | - |
| 1777475155 | 5° C | 73% | 1018.8 hPa | 0 mm | - | 235 W/m² | - |
| 1777474852 | 3.89° C | 74% | 1018.6 hPa | 0 mm | - | 223 W/m² | - |
| 1777474547 | 3.33° C | 77% | 1018.9 hPa | 0 mm | - | 210 W/m² | - |
| 1777474245 | 3.33° C | 76% | 1018.8 hPa | 0 mm | - | 197 W/m² | - |
| 1777473942 | 2.78° C | 78% | 1019 hPa | 0 mm | - | 184 W/m² | - |
* Rain latest hour (hover to see other rain measurements)
** Current wind speed in m/s (hover to see current wind gust speed)